sensor_id;sensor_type;location;lat;lon;timestamp;P1;durP1;ratioP1;P2;durP2;ratioP2
22937;SDS011;11634;42.734;23.298;2023-11-21T00:01:40;47.40;;;31.53;;
22937;SDS011;11634;42.734;23.298;2023-11-21T00:04:05;40.73;;;26.13;;
22937;SDS011;11634;42.734;23.298;2023-11-21T00:06:32;42.73;;;26.77;;
22937;SDS011;11634;42.734;23.298;2023-11-21T00:08:59;41.27;;;25.37;;
22937;SDS011;11634;42.734;23.298;2023-11-21T00:11:24;41.10;;;26.63;;
22937;SDS011;11634;42.734;23.298;2023-11-21T00:13:50;41.28;;;28.23;;
22937;SDS011;11634;42.734;23.298;2023-11-21T00:16:16;38.20;;;23.27;;
22937;SDS011;11634;42.734;23.298;2023-11-21T00:18:42;49.15;;;34.90;;
22937;SDS011;11634;42.734;23.298;2023-11-21T00:21:08;33.67;;;24.03;;
22937;SDS011;11634;42.734;23.298;2023-11-21T00:23:35;40.67;;;24.55;;
22937;SDS011;11634;42.734;23.298;2023-11-21T00:26:01;38.80;;;26.88;;
22937;SDS011;11634;42.734;23.298;2023-11-21T00:28:27;43.13;;;26.27;;
22937;SDS011;11634;42.734;23.298;2023-11-21T00:30:53;44.92;;;27.45;;
22937;SDS011;11634;42.734;23.298;2023-11-21T00:33:19;37.92;;;25.20;;
22937;SDS011;11634;42.734;23.298;2023-11-21T00:35:55;38.15;;;24.75;;
22937;SDS011;11634;42.734;23.298;2023-11-21T00:38:24;34.35;;;20.45;;
22937;SDS011;11634;42.734;23.298;2023-11-21T00:40:50;35.33;;;21.07;;
22937;SDS011;11634;42.734;23.298;2023-11-21T00:43:17;34.87;;;22.10;;
22937;SDS011;11634;42.734;23.298;2023-11-21T00:45:44;32.28;;;19.88;;
22937;SDS011;11634;42.734;23.298;2023-11-21T00:48:12;30.30;;;18.95;;
22937;SDS011;11634;42.734;23.298;2023-11-21T00:50:40;28.63;;;16.98;;
22937;SDS011;11634;42.734;23.298;2023-11-21T00:53:06;29.38;;;18.33;;
22937;SDS011;11634;42.734;23.298;2023-11-21T00:55:35;27.33;;;18.77;;
22937;SDS011;11634;42.734;23.298;2023-11-21T00:58:01;32.10;;;19.20;;
22937;SDS011;11634;42.734;23.298;2023-11-21T01:00:29;29.75;;;18.83;;
22937;SDS011;11634;42.734;23.298;2023-11-21T01:02:59;31.02;;;20.30;;
22937;SDS011;11634;42.734;23.298;2023-11-21T01:05:25;31.33;;;20.03;;
22937;SDS011;11634;42.734;23.298;2023-11-21T01:07:52;28.45;;;17.48;;
22937;SDS011;11634;42.734;23.298;2023-11-21T01:10:17;27.80;;;18.90;;
22937;SDS011;11634;42.734;23.298;2023-11-21T01:12:43;28.75;;;18.38;;
22937;SDS011;11634;42.734;23.298;2023-11-21T01:15:09;25.57;;;18.07;;
22937;SDS011;11634;42.734;23.298;2023-11-21T01:17:38;26.90;;;18.47;;
22937;SDS011;11634;42.734;23.298;2023-11-21T01:20:09;29.27;;;17.97;;
22937;SDS011;11634;42.734;23.298;2023-11-21T01:22:39;33.60;;;21.97;;
22937;SDS011;11634;42.734;23.298;2023-11-21T01:25:05;39.27;;;25.03;;
22937;SDS011;11634;42.734;23.298;2023-11-21T01:27:33;36.73;;;25.53;;
22937;SDS011;11634;42.734;23.298;2023-11-21T01:30:01;36.97;;;26.00;;
22937;SDS011;11634;42.734;23.298;2023-11-21T01:32:27;36.10;;;24.00;;
22937;SDS011;11634;42.734;23.298;2023-11-21T01:34:53;35.70;;;22.87;;
22937;SDS011;11634;42.734;23.298;2023-11-21T01:37:20;39.77;;;23.33;;
22937;SDS011;11634;42.734;23.298;2023-11-21T01:39:47;32.43;;;20.97;;
22937;SDS011;11634;42.734;23.298;2023-11-21T01:42:14;40.60;;;22.07;;
22937;SDS011;11634;42.734;23.298;2023-11-21T01:44:40;35.47;;;23.17;;
22937;SDS011;11634;42.734;23.298;2023-11-21T01:47:06;42.90;;;24.93;;
22937;SDS011;11634;42.734;23.298;2023-11-21T01:49:35;41.53;;;23.90;;
22937;SDS011;11634;42.734;23.298;2023-11-21T01:52:05;31.30;;;21.03;;
22937;SDS011;11634;42.734;23.298;2023-11-21T01:54:31;33.43;;;21.87;;
22937;SDS011;11634;42.734;23.298;2023-11-21T01:57:01;33.40;;;22.03;;
22937;SDS011;11634;42.734;23.298;2023-11-21T01:59:30;33.93;;;22.90;;
22937;SDS011;11634;42.734;23.298;2023-11-21T02:02:03;33.10;;;21.57;;
22937;SDS011;11634;42.734;23.298;2023-11-21T02:04:33;31.50;;;22.43;;
22937;SDS011;11634;42.734;23.298;2023-11-21T02:07:00;35.20;;;22.70;;
22937;SDS011;11634;42.734;23.298;2023-11-21T02:09:27;34.57;;;23.57;;
22937;SDS011;11634;42.734;23.298;2023-11-21T02:11:54;36.47;;;22.50;;
22937;SDS011;11634;42.734;23.298;2023-11-21T02:14:22;29.77;;;18.90;;
22937;SDS011;11634;42.734;23.298;2023-11-21T02:16:50;33.37;;;20.23;;
22937;SDS011;11634;42.734;23.298;2023-11-21T02:19:20;27.40;;;19.17;;
22937;SDS011;11634;42.734;23.298;2023-11-21T02:21:54;27.37;;;18.20;;
22937;SDS011;11634;42.734;23.298;2023-11-21T02:24:26;27.93;;;17.13;;
22937;SDS011;11634;42.734;23.298;2023-11-21T02:26:52;27.43;;;17.67;;
22937;SDS011;11634;42.734;23.298;2023-11-21T02:29:18;27.23;;;18.47;;
22937;SDS011;11634;42.734;23.298;2023-11-21T02:31:47;28.43;;;17.53;;
22937;SDS011;11634;42.734;23.298;2023-11-21T02:34:15;26.73;;;17.00;;
22937;SDS011;11634;42.734;23.298;2023-11-21T02:36:42;26.03;;;18.23;;
22937;SDS011;11634;42.734;23.298;2023-11-21T02:39:08;28.67;;;17.47;;
22937;SDS011;11634;42.734;23.298;2023-11-21T02:41:36;22.87;;;15.57;;
22937;SDS011;11634;42.734;23.298;2023-11-21T02:44:03;25.70;;;16.03;;
22937;SDS011;11634;42.734;23.298;2023-11-21T02:46:29;22.43;;;15.40;;
22937;SDS011;11634;42.734;23.298;2023-11-21T02:48:54;25.93;;;16.37;;
22937;SDS011;11634;42.734;23.298;2023-11-21T02:51:20;21.93;;;15.00;;
22937;SDS011;11634;42.734;23.298;2023-11-21T02:53:46;25.33;;;15.97;;
22937;SDS011;11634;42.734;23.298;2023-11-21T02:56:13;27.73;;;17.60;;
22937;SDS011;11634;42.734;23.298;2023-11-21T02:58:41;25.33;;;17.73;;
22937;SDS011;11634;42.734;23.298;2023-11-21T03:01:09;23.43;;;17.37;;
22937;SDS011;11634;42.734;23.298;2023-11-21T03:03:38;27.27;;;19.47;;
22937;SDS011;11634;42.734;23.298;2023-11-21T03:06:06;27.30;;;20.20;;
22937;SDS011;11634;42.734;23.298;2023-11-21T03:08:32;27.80;;;18.67;;
22937;SDS011;11634;42.734;23.298;2023-11-21T03:10:58;30.97;;;20.50;;
22937;SDS011;11634;42.734;23.298;2023-11-21T03:13:24;27.80;;;19.13;;
22937;SDS011;11634;42.734;23.298;2023-11-21T03:15:51;32.00;;;19.60;;
22937;SDS011;11634;42.734;23.298;2023-11-21T03:18:18;27.33;;;17.07;;
22937;SDS011;11634;42.734;23.298;2023-11-21T03:20:45;21.57;;;16.50;;
22937;SDS011;11634;42.734;23.298;2023-11-21T03:23:11;26.10;;;17.77;;
22937;SDS011;11634;42.734;23.298;2023-11-21T03:25:37;26.47;;;17.63;;
22937;SDS011;11634;42.734;23.298;2023-11-21T03:28:03;31.53;;;22.83;;
22937;SDS011;11634;42.734;23.298;2023-11-21T03:30:28;31.53;;;19.93;;
22937;SDS011;11634;42.734;23.298;2023-11-21T03:32:54;33.63;;;22.33;;
22937;SDS011;11634;42.734;23.298;2023-11-21T03:35:20;28.83;;;21.13;;
22937;SDS011;11634;42.734;23.298;2023-11-21T03:37:46;30.93;;;18.80;;
22937;SDS011;11634;42.734;23.298;2023-11-21T03:40:12;28.53;;;19.03;;
22937;SDS011;11634;42.734;23.298;2023-11-21T03:42:38;25.53;;;17.23;;
22937;SDS011;11634;42.734;23.298;2023-11-21T03:45:05;25.60;;;18.13;;
22937;SDS011;11634;42.734;23.298;2023-11-21T03:47:33;24.90;;;16.57;;
22937;SDS011;11634;42.734;23.298;2023-11-21T03:49:58;23.40;;;16.30;;
22937;SDS011;11634;42.734;23.298;2023-11-21T03:52:25;31.33;;;17.10;;
22937;SDS011;11634;42.734;23.298;2023-11-21T03:54:52;28.40;;;17.70;;
22937;SDS011;11634;42.734;23.298;2023-11-21T03:57:18;24.77;;;16.50;;
22937;SDS011;11634;42.734;23.298;2023-11-21T03:59:44;23.30;;;15.80;;
22937;SDS011;11634;42.734;23.298;2023-11-21T04:02:09;22.37;;;15.67;;
22937;SDS011;11634;42.734;23.298;2023-11-21T04:04:35;23.80;;;16.50;;
22937;SDS011;11634;42.734;23.298;2023-11-21T04:07:01;27.03;;;17.13;;
22937;SDS011;11634;42.734;23.298;2023-11-21T04:09:28;26.77;;;16.83;;
22937;SDS011;11634;42.734;23.298;2023-11-21T04:11:53;23.07;;;14.93;;
22937;SDS011;11634;42.734;23.298;2023-11-21T04:14:21;18.53;;;14.83;;
22937;SDS011;11634;42.734;23.298;2023-11-21T04:16:48;22.53;;;16.80;;
22937;SDS011;11634;42.734;23.298;2023-11-21T04:19:13;26.20;;;17.17;;
22937;SDS011;11634;42.734;23.298;2023-11-21T04:21:40;26.20;;;18.30;;
22937;SDS011;11634;42.734;23.298;2023-11-21T04:24:07;30.40;;;20.03;;
22937;SDS011;11634;42.734;23.298;2023-11-21T04:26:33;30.23;;;19.30;;
22937;SDS011;11634;42.734;23.298;2023-11-21T04:29:00;27.17;;;18.57;;
22937;SDS011;11634;42.734;23.298;2023-11-21T04:31:25;28.70;;;19.87;;
22937;SDS011;11634;42.734;23.298;2023-11-21T04:33:51;28.63;;;19.90;;
22937;SDS011;11634;42.734;23.298;2023-11-21T04:36:16;33.67;;;21.73;;
22937;SDS011;11634;42.734;23.298;2023-11-21T04:38:42;30.13;;;19.43;;
22937;SDS011;11634;42.734;23.298;2023-11-21T04:41:08;27.87;;;18.97;;
22937;SDS011;11634;42.734;23.298;2023-11-21T04:43:33;27.30;;;18.87;;
22937;SDS011;11634;42.734;23.298;2023-11-21T04:45:59;29.77;;;19.93;;
22937;SDS011;11634;42.734;23.298;2023-11-21T04:48:25;26.33;;;19.23;;
22937;SDS011;11634;42.734;23.298;2023-11-21T04:50:51;28.20;;;19.97;;
22937;SDS011;11634;42.734;23.298;2023-11-21T04:53:17;33.47;;;20.77;;
22937;SDS011;11634;42.734;23.298;2023-11-21T04:55:43;36.23;;;20.77;;
22937;SDS011;11634;42.734;23.298;2023-11-21T04:58:09;35.73;;;21.10;;
22937;SDS011;11634;42.734;23.298;2023-11-21T05:00:36;30.83;;;21.43;;
22937;SDS011;11634;42.734;23.298;2023-11-21T05:03:02;33.27;;;21.70;;
22937;SDS011;11634;42.734;23.298;2023-11-21T05:05:31;30.10;;;20.47;;
22937;SDS011;11634;42.734;23.298;2023-11-21T05:07:57;39.27;;;20.70;;
22937;SDS011;11634;42.734;23.298;2023-11-21T05:10:26;33.60;;;21.73;;
22937;SDS011;11634;42.734;23.298;2023-11-21T05:12:51;30.03;;;21.10;;
22937;SDS011;11634;42.734;23.298;2023-11-21T05:15:17;34.87;;;22.00;;
22937;SDS011;11634;42.734;23.298;2023-11-21T05:17:43;33.30;;;21.17;;
22937;SDS011;11634;42.734;23.298;2023-11-21T05:20:11;43.03;;;31.77;;
22937;SDS011;11634;42.734;23.298;2023-11-21T05:22:38;32.77;;;21.77;;
22937;SDS011;11634;42.734;23.298;2023-11-21T05:25:05;39.50;;;23.57;;
22937;SDS011;11634;42.734;23.298;2023-11-21T05:27:33;34.10;;;23.23;;
22937;SDS011;11634;42.734;23.298;2023-11-21T05:30:01;41.20;;;26.63;;
22937;SDS011;11634;42.734;23.298;2023-11-21T05:32:30;35.63;;;26.13;;
22937;SDS011;11634;42.734;23.298;2023-11-21T05:34:56;45.57;;;28.20;;
22937;SDS011;11634;42.734;23.298;2023-11-21T05:37:22;40.70;;;27.40;;
22937;SDS011;11634;42.734;23.298;2023-11-21T05:39:48;43.37;;;28.50;;
22937;SDS011;11634;42.734;23.298;2023-11-21T05:42:15;42.70;;;26.70;;
22937;SDS011;11634;42.734;23.298;2023-11-21T05:44:42;37.40;;;23.90;;
22937;SDS011;11634;42.734;23.298;2023-11-21T05:47:11;34.93;;;23.70;;
22937;SDS011;11634;42.734;23.298;2023-11-21T05:49:38;31.20;;;22.00;;
22937;SDS011;11634;42.734;23.298;2023-11-21T05:52:04;25.40;;;19.53;;
22937;SDS011;11634;42.734;23.298;2023-11-21T05:54:30;31.60;;;18.97;;
22937;SDS011;11634;42.734;23.298;2023-11-21T05:56:58;36.20;;;19.37;;
22937;SDS011;11634;42.734;23.298;2023-11-21T05:59:26;29.27;;;18.03;;
22937;SDS011;11634;42.734;23.298;2023-11-21T06:01:53;27.27;;;17.40;;
22937;SDS011;11634;42.734;23.298;2023-11-21T06:04:20;27.23;;;17.63;;
22937;SDS011;11634;42.734;23.298;2023-11-21T06:06:49;30.67;;;17.00;;
22937;SDS011;11634;42.734;23.298;2023-11-21T06:09:16;36.87;;;17.50;;
22937;SDS011;11634;42.734;23.298;2023-11-21T06:11:41;33.60;;;17.20;;
22937;SDS011;11634;42.734;23.298;2023-11-21T06:14:07;40.40;;;18.20;;
22937;SDS011;11634;42.734;23.298;2023-11-21T06:16:35;46.10;;;19.30;;
22937;SDS011;11634;42.734;23.298;2023-11-21T06:19:00;40.17;;;19.27;;
22937;SDS011;11634;42.734;23.298;2023-11-21T06:21:26;46.93;;;21.17;;
22937;SDS011;11634;42.734;23.298;2023-11-21T06:23:52;41.77;;;20.10;;
22937;SDS011;11634;42.734;23.298;2023-11-21T06:26:18;32.97;;;18.67;;
22937;SDS011;11634;42.734;23.298;2023-11-21T06:28:44;36.93;;;20.27;;
22937;SDS011;11634;42.734;23.298;2023-11-21T06:31:10;27.30;;;18.37;;
22937;SDS011;11634;42.734;23.298;2023-11-21T06:33:36;28.67;;;17.27;;
22937;SDS011;11634;42.734;23.298;2023-11-21T06:36:01;24.80;;;16.63;;
22937;SDS011;11634;42.734;23.298;2023-11-21T06:38:31;21.23;;;15.63;;
22937;SDS011;11634;42.734;23.298;2023-11-21T06:40:57;20.63;;;15.20;;
22937;SDS011;11634;42.734;23.298;2023-11-21T06:43:24;21.00;;;15.10;;
22937;SDS011;11634;42.734;23.298;2023-11-21T06:45:51;21.83;;;14.63;;
22937;SDS011;11634;42.734;23.298;2023-11-21T06:48:17;18.80;;;14.80;;
22937;SDS011;11634;42.734;23.298;2023-11-21T06:50:42;21.97;;;15.10;;
22937;SDS011;11634;42.734;23.298;2023-11-21T06:53:08;19.80;;;15.00;;
22937;SDS011;11634;42.734;23.298;2023-11-21T06:55:34;20.77;;;16.67;;
22937;SDS011;11634;42.734;23.298;2023-11-21T06:58:01;24.97;;;16.53;;
22937;SDS011;11634;42.734;23.298;2023-11-21T07:00:26;28.20;;;17.70;;
22937;SDS011;11634;42.734;23.298;2023-11-21T07:02:55;25.67;;;17.40;;
22937;SDS011;11634;42.734;23.298;2023-11-21T07:05:21;27.25;;;19.80;;
22937;SDS011;11634;42.734;23.298;2023-11-21T07:07:47;31.43;;;20.20;;
22937;SDS011;11634;42.734;23.298;2023-11-21T07:10:14;32.33;;;21.70;;
22937;SDS011;11634;42.734;23.298;2023-11-21T07:12:40;33.33;;;22.80;;
22937;SDS011;11634;42.734;23.298;2023-11-21T07:15:06;30.63;;;22.80;;
22937;SDS011;11634;42.734;23.298;2023-11-21T07:17:35;30.10;;;20.92;;
22937;SDS011;11634;42.734;23.298;2023-11-21T07:20:01;31.40;;;21.98;;
22937;SDS011;11634;42.734;23.298;2023-11-21T07:22:28;31.40;;;21.13;;
22937;SDS011;11634;42.734;23.298;2023-11-21T07:24:53;30.08;;;20.20;;
22937;SDS011;11634;42.734;23.298;2023-11-21T07:27:21;27.37;;;19.53;;
22937;SDS011;11634;42.734;23.298;2023-11-21T07:29:49;27.77;;;19.00;;
22937;SDS011;11634;42.734;23.298;2023-11-21T07:32:15;29.70;;;19.75;;
22937;SDS011;11634;42.734;23.298;2023-11-21T07:34:41;32.22;;;19.08;;
22937;SDS011;11634;42.734;23.298;2023-11-21T07:37:07;27.48;;;19.50;;
22937;SDS011;11634;42.734;23.298;2023-11-21T07:39:34;27.88;;;19.52;;
22937;SDS011;11634;42.734;23.298;2023-11-21T07:42:01;29.75;;;19.88;;
22937;SDS011;11634;42.734;23.298;2023-11-21T07:44:27;28.83;;;21.80;;
22937;SDS011;11634;42.734;23.298;2023-11-21T07:46:54;31.92;;;21.67;;
22937;SDS011;11634;42.734;23.298;2023-11-21T07:49:23;28.90;;;20.20;;
22937;SDS011;11634;42.734;23.298;2023-11-21T07:51:52;33.83;;;20.83;;
22937;SDS011;11634;42.734;23.298;2023-11-21T07:54:17;31.25;;;19.38;;
22937;SDS011;11634;42.734;23.298;2023-11-21T07:56:43;25.80;;;19.23;;
22937;SDS011;11634;42.734;23.298;2023-11-21T07:59:10;26.33;;;18.88;;
22937;SDS011;11634;42.734;23.298;2023-11-21T08:01:36;28.17;;;18.73;;
22937;SDS011;11634;42.734;23.298;2023-11-21T08:04:01;27.20;;;19.35;;
22937;SDS011;11634;42.734;23.298;2023-11-21T08:06:31;27.25;;;19.85;;
22937;SDS011;11634;42.734;23.298;2023-11-21T08:08:58;34.38;;;20.98;;
22937;SDS011;11634;42.734;23.298;2023-11-21T08:11:26;30.27;;;21.85;;
22937;SDS011;11634;42.734;23.298;2023-11-21T08:13:54;35.60;;;23.02;;
22937;SDS011;11634;42.734;23.298;2023-11-21T08:16:20;31.15;;;20.70;;
22937;SDS011;11634;42.734;23.298;2023-11-21T08:18:46;33.13;;;21.48;;
22937;SDS011;11634;42.734;23.298;2023-11-21T08:21:12;34.10;;;24.25;;
22937;SDS011;11634;42.734;23.298;2023-11-21T08:23:38;40.47;;;26.38;;
22937;SDS011;11634;42.734;23.298;2023-11-21T08:26:04;37.92;;;26.48;;
22937;SDS011;11634;42.734;23.298;2023-11-21T08:28:31;43.65;;;30.02;;
22937;SDS011;11634;42.734;23.298;2023-11-21T08:30:57;45.28;;;30.23;;
22937;SDS011;11634;42.734;23.298;2023-11-21T08:33:22;43.08;;;26.98;;
22937;SDS011;11634;42.734;23.298;2023-11-21T08:35:48;41.42;;;27.55;;
22937;SDS011;11634;42.734;23.298;2023-11-21T08:38:14;42.25;;;27.17;;
22937;SDS011;11634;42.734;23.298;2023-11-21T08:40:40;47.95;;;26.60;;
22937;SDS011;11634;42.734;23.298;2023-11-21T08:43:05;49.72;;;28.60;;
22937;SDS011;11634;42.734;23.298;2023-11-21T08:45:32;46.55;;;26.92;;
22937;SDS011;11634;42.734;23.298;2023-11-21T08:48:02;45.38;;;25.52;;
22937;SDS011;11634;42.734;23.298;2023-11-21T08:50:28;49.47;;;27.73;;
22937;SDS011;11634;42.734;23.298;2023-11-21T08:52:54;45.45;;;27.27;;
22937;SDS011;11634;42.734;23.298;2023-11-21T08:55:20;47.33;;;28.05;;
22937;SDS011;11634;42.734;23.298;2023-11-21T08:57:46;42.03;;;27.45;;
22937;SDS011;11634;42.734;23.298;2023-11-21T09:00:12;38.38;;;25.90;;
22937;SDS011;11634;42.734;23.298;2023-11-21T09:02:41;35.42;;;24.52;;
22937;SDS011;11634;42.734;23.298;2023-11-21T09:05:07;46.67;;;24.65;;
22937;SDS011;11634;42.734;23.298;2023-11-21T09:07:34;38.13;;;25.55;;
22937;SDS011;11634;42.734;23.298;2023-11-21T09:10:04;43.50;;;25.02;;
22937;SDS011;11634;42.734;23.298;2023-11-21T09:12:35;39.88;;;24.33;;
22937;SDS011;11634;42.734;23.298;2023-11-21T09:15:03;37.95;;;23.25;;
22937;SDS011;11634;42.734;23.298;2023-11-21T09:17:30;40.67;;;25.83;;
22937;SDS011;11634;42.734;23.298;2023-11-21T09:19:57;45.45;;;24.45;;
22937;SDS011;11634;42.734;23.298;2023-11-21T09:22:22;34.67;;;22.95;;
22937;SDS011;11634;42.734;23.298;2023-11-21T09:24:50;39.75;;;23.20;;
22937;SDS011;11634;42.734;23.298;2023-11-21T09:27:16;32.20;;;21.50;;
22937;SDS011;11634;42.734;23.298;2023-11-21T09:29:42;31.65;;;20.17;;
22937;SDS011;11634;42.734;23.298;2023-11-21T09:32:08;36.47;;;19.50;;
22937;SDS011;11634;42.734;23.298;2023-11-21T09:34:39;26.83;;;17.17;;
22937;SDS011;11634;42.734;23.298;2023-11-21T09:37:05;22.42;;;16.58;;
22937;SDS011;11634;42.734;23.298;2023-11-21T09:39:32;35.28;;;22.90;;
22937;SDS011;11634;42.734;23.298;2023-11-21T09:42:04;43.53;;;26.58;;
22937;SDS011;11634;42.734;23.298;2023-11-21T09:44:36;42.35;;;31.67;;
22937;SDS011;11634;42.734;23.298;2023-11-21T09:47:14;53.13;;;34.72;;
22937;SDS011;11634;42.734;23.298;2023-11-21T09:49:42;41.22;;;34.08;;
22937;SDS011;11634;42.734;23.298;2023-11-21T09:52:46;43.70;;;34.88;;
22937;SDS011;11634;42.734;23.298;2023-11-21T09:55:07;44.90;;;36.78;;
22937;SDS011;11634;42.734;23.298;2023-11-21T09:57:33;47.28;;;35.45;;
22937;SDS011;11634;42.734;23.298;2023-11-21T09:59:59;38.13;;;31.10;;
22937;SDS011;11634;42.734;23.298;2023-11-21T10:02:30;42.40;;;34.17;;
22937;SDS011;11634;42.734;23.298;2023-11-21T10:05:02;35.95;;;27.42;;
22937;SDS011;11634;42.734;23.298;2023-11-21T10:07:29;39.50;;;27.92;;
22937;SDS011;11634;42.734;23.298;2023-11-21T10:09:57;38.80;;;27.30;;
22937;SDS011;11634;42.734;23.298;2023-11-21T10:12:24;41.63;;;29.40;;
22937;SDS011;11634;42.734;23.298;2023-11-21T10:14:52;35.05;;;24.50;;
22937;SDS011;11634;42.734;23.298;2023-11-21T10:17:21;34.70;;;22.60;;
22937;SDS011;11634;42.734;23.298;2023-11-21T10:19:49;25.85;;;20.35;;
22937;SDS011;11634;42.734;23.298;2023-11-21T10:22:15;24.63;;;19.02;;
22937;SDS011;11634;42.734;23.298;2023-11-21T10:24:41;25.90;;;17.08;;
22937;SDS011;11634;42.734;23.298;2023-11-21T10:27:08;21.63;;;16.58;;
22937;SDS011;11634;42.734;23.298;2023-11-21T10:29:35;27.50;;;18.42;;
22937;SDS011;11634;42.734;23.298;2023-11-21T10:32:03;24.90;;;19.15;;
22937;SDS011;11634;42.734;23.298;2023-11-21T10:34:30;29.42;;;18.80;;
22937;SDS011;11634;42.734;23.298;2023-11-21T10:36:57;26.95;;;18.85;;
22937;SDS011;11634;42.734;23.298;2023-11-21T10:39:23;25.00;;;19.20;;
22937;SDS011;11634;42.734;23.298;2023-11-21T10:41:53;26.25;;;19.20;;
22937;SDS011;11634;42.734;23.298;2023-11-21T10:44:20;25.15;;;19.92;;
22937;SDS011;11634;42.734;23.298;2023-11-21T10:46:51;28.00;;;18.35;;
22937;SDS011;11634;42.734;23.298;2023-11-21T10:49:21;31.08;;;19.50;;
22937;SDS011;11634;42.734;23.298;2023-11-21T10:51:50;27.33;;;18.77;;
22937;SDS011;11634;42.734;23.298;2023-11-21T10:54:21;21.45;;;17.45;;
22937;SDS011;11634;42.734;23.298;2023-11-21T10:56:49;20.52;;;16.60;;
22937;SDS011;11634;42.734;23.298;2023-11-21T10:59:19;24.20;;;17.48;;
22937;SDS011;11634;42.734;23.298;2023-11-21T11:01:46;24.00;;;18.60;;
22937;SDS011;11634;42.734;23.298;2023-11-21T11:04:20;23.95;;;14.82;;
22937;SDS011;11634;42.734;23.298;2023-11-21T11:07:02;27.95;;;17.90;;
22937;SDS011;11634;42.734;23.298;2023-11-21T11:09:30;29.10;;;20.83;;
22937;SDS011;11634;42.734;23.298;2023-11-21T11:12:00;31.67;;;20.92;;
22937;SDS011;11634;42.734;23.298;2023-11-21T11:14:31;29.60;;;20.83;;
22937;SDS011;11634;42.734;23.298;2023-11-21T11:16:58;28.33;;;21.00;;
22937;SDS011;11634;42.734;23.298;2023-11-21T11:19:25;27.52;;;21.40;;
22937;SDS011;11634;42.734;23.298;2023-11-21T11:30:41;26.05;;;19.35;;
22937;SDS011;11634;42.734;23.298;2023-11-21T11:33:31;25.90;;;17.38;;
22937;SDS011;11634;42.734;23.298;2023-11-21T11:38:33;25.90;;;18.42;;
22937;SDS011;11634;42.734;23.298;2023-11-21T11:41:04;25.63;;;16.67;;
22937;SDS011;11634;42.734;23.298;2023-11-21T11:43:31;24.20;;;16.08;;
22937;SDS011;11634;42.734;23.298;2023-11-21T11:46:10;30.88;;;21.73;;
22937;SDS011;11634;42.734;23.298;2023-11-21T11:48:40;39.72;;;23.83;;
22937;SDS011;11634;42.734;23.298;2023-11-21T11:53:35;34.70;;;25.00;;
22937;SDS011;11634;42.734;23.298;2023-11-21T11:58:58;33.10;;;21.63;;
22937;SDS011;11634;42.734;23.298;2023-11-21T12:01:27;37.22;;;22.42;;
22937;SDS011;11634;42.734;23.298;2023-11-21T12:06:57;31.48;;;19.55;;
22937;SDS011;11634;42.734;23.298;2023-11-21T12:09:28;35.30;;;19.50;;
22937;SDS011;11634;42.734;23.298;2023-11-21T12:11:58;31.15;;;20.35;;
22937;SDS011;11634;42.734;23.298;2023-11-21T12:14:28;24.10;;;17.67;;
22937;SDS011;11634;42.734;23.298;2023-11-21T12:16:54;26.42;;;18.58;;
22937;SDS011;11634;42.734;23.298;2023-11-21T12:19:20;24.85;;;17.85;;
22937;SDS011;11634;42.734;23.298;2023-11-21T12:21:48;26.27;;;19.75;;
22937;SDS011;11634;42.734;23.298;2023-11-21T12:24:15;28.70;;;18.00;;
22937;SDS011;11634;42.734;23.298;2023-11-21T12:26:41;24.20;;;17.25;;
22937;SDS011;11634;42.734;23.298;2023-11-21T12:29:09;22.63;;;17.17;;
22937;SDS011;11634;42.734;23.298;2023-11-21T12:31:36;26.13;;;17.73;;
22937;SDS011;11634;42.734;23.298;2023-11-21T12:34:01;24.35;;;15.75;;
22937;SDS011;11634;42.734;23.298;2023-11-21T12:36:27;23.15;;;15.93;;
22937;SDS011;11634;42.734;23.298;2023-11-21T12:38:55;22.50;;;17.38;;
22937;SDS011;11634;42.734;23.298;2023-11-21T12:41:22;23.10;;;17.52;;
22937;SDS011;11634;42.734;23.298;2023-11-21T12:43:48;25.33;;;18.55;;
22937;SDS011;11634;42.734;23.298;2023-11-21T12:46:18;25.27;;;19.38;;
22937;SDS011;11634;42.734;23.298;2023-11-21T12:48:46;22.23;;;19.27;;
22937;SDS011;11634;42.734;23.298;2023-11-21T12:51:14;25.02;;;19.98;;
22937;SDS011;11634;42.734;23.298;2023-11-21T12:53:41;24.20;;;19.65;;
22937;SDS011;11634;42.734;23.298;2023-11-21T12:56:11;28.85;;;20.65;;
22937;SDS011;11634;42.734;23.298;2023-11-21T12:58:37;26.55;;;20.45;;
22937;SDS011;11634;42.734;23.298;2023-11-21T13:01:10;28.75;;;21.83;;
22937;SDS011;11634;42.734;23.298;2023-11-21T13:03:47;29.55;;;22.15;;
22937;SDS011;11634;42.734;23.298;2023-11-21T13:06:16;27.60;;;20.83;;
22937;SDS011;11634;42.734;23.298;2023-11-21T13:08:43;27.63;;;19.52;;
22937;SDS011;11634;42.734;23.298;2023-11-21T13:11:10;27.55;;;18.95;;
22937;SDS011;11634;42.734;23.298;2023-11-21T13:13:36;23.83;;;18.80;;
22937;SDS011;11634;42.734;23.298;2023-11-21T13:16:04;29.20;;;21.42;;
22937;SDS011;11634;42.734;23.298;2023-11-21T13:18:30;30.85;;;22.90;;
22937;SDS011;11634;42.734;23.298;2023-11-21T13:21:02;30.10;;;22.98;;
22937;SDS011;11634;42.734;23.298;2023-11-21T13:23:37;31.55;;;24.08;;
22937;SDS011;11634;42.734;23.298;2023-11-21T13:26:06;31.67;;;25.90;;
22937;SDS011;11634;42.734;23.298;2023-11-21T13:28:32;36.08;;;28.63;;
22937;SDS011;11634;42.734;23.298;2023-11-21T13:33:59;36.08;;;26.88;;
22937;SDS011;11634;42.734;23.298;2023-11-21T13:36:30;30.50;;;23.27;;
22937;SDS011;11634;42.734;23.298;2023-11-21T13:38:58;30.05;;;24.08;;
22937;SDS011;11634;42.734;23.298;2023-11-21T13:41:24;39.75;;;29.95;;
22937;SDS011;11634;42.734;23.298;2023-11-21T13:43:56;36.67;;;28.55;;
22937;SDS011;11634;42.734;23.298;2023-11-21T13:46:37;33.38;;;27.23;;
22937;SDS011;11634;42.734;23.298;2023-11-21T13:49:03;38.30;;;28.90;;
22937;SDS011;11634;42.734;23.298;2023-11-21T13:51:34;50.80;;;36.08;;
22937;SDS011;11634;42.734;23.298;2023-11-21T13:54:11;40.17;;;28.73;;
22937;SDS011;11634;42.734;23.298;2023-11-21T13:56:37;37.70;;;30.50;;
22937;SDS011;11634;42.734;23.298;2023-11-21T13:59:06;38.53;;;29.40;;
22937;SDS011;11634;42.734;23.298;2023-11-21T14:01:46;37.35;;;28.25;;
22937;SDS011;11634;42.734;23.298;2023-11-21T14:04:23;41.97;;;28.67;;
22937;SDS011;11634;42.734;23.298;2023-11-21T14:06:58;36.08;;;28.33;;
22937;SDS011;11634;42.734;23.298;2023-11-21T14:09:26;39.28;;;29.45;;
22937;SDS011;11634;42.734;23.298;2023-11-21T14:12:00;41.17;;;30.58;;
22937;SDS011;11634;42.734;23.298;2023-11-21T14:14:28;37.38;;;30.40;;
22937;SDS011;11634;42.734;23.298;2023-11-21T14:16:54;53.92;;;42.17;;
22937;SDS011;11634;42.734;23.298;2023-11-21T14:19:26;41.40;;;32.38;;
22937;SDS011;11634;42.734;23.298;2023-11-21T14:21:56;43.28;;;34.83;;
22937;SDS011;11634;42.734;23.298;2023-11-21T14:24:22;42.05;;;33.97;;
22937;SDS011;11634;42.734;23.298;2023-11-21T14:26:49;43.88;;;33.40;;
22937;SDS011;11634;42.734;23.298;2023-11-21T14:29:30;41.88;;;33.40;;
22937;SDS011;11634;42.734;23.298;2023-11-21T14:31:57;42.97;;;34.05;;
22937;SDS011;11634;42.734;23.298;2023-11-21T14:34:23;44.85;;;35.13;;